createdAt,value
2022-11-02T00:03:24.138Z,12.90
2022-11-02T00:07:26.976Z,12.90
2022-11-02T00:11:31.568Z,12.90
2022-11-02T00:15:35.588Z,13.00
2022-11-02T00:19:38.484Z,13.00
2022-11-02T00:23:41.629Z,13.00
2022-11-02T00:27:45.869Z,13.00
2022-11-02T00:31:48.728Z,13.10
2022-11-02T00:35:51.707Z,13.10
2022-11-02T00:39:54.603Z,13.20
2022-11-02T00:43:58.835Z,13.20
2022-11-02T00:48:02.299Z,13.30
2022-11-02T00:52:07.267Z,13.30
2022-11-02T00:56:10.174Z,13.30
2022-11-02T01:00:15.391Z,13.30
2022-11-02T01:04:18.613Z,13.30
2022-11-02T01:08:21.432Z,13.30
2022-11-02T01:12:24.297Z,13.30
2022-11-02T01:16:28.825Z,13.30
2022-11-02T01:20:31.720Z,13.30
2022-11-02T01:24:34.613Z,13.30
2022-11-02T01:28:37.932Z,13.30
2022-11-02T01:32:42.171Z,13.30
2022-11-02T01:36:45.748Z,13.20
2022-11-02T01:40:48.921Z,13.20
2022-11-02T01:44:52.830Z,13.20
2022-11-02T01:48:59.615Z,13.20
2022-11-02T01:53:02.537Z,13.20
2022-11-02T01:57:06.887Z,13.20
2022-11-02T02:01:10.354Z,13.20
2022-11-02T02:05:15.701Z,13.20
2022-11-02T02:09:19.124Z,13.20
2022-11-02T02:13:22.010Z,13.20
2022-11-02T02:17:33.153Z,13.20
2022-11-02T02:21:42.155Z,13.30
2022-11-02T02:25:53.850Z,13.30
2022-11-02T02:30:03.890Z,13.30
2022-11-02T02:34:10.560Z,13.30
2022-11-02T02:38:16.015Z,13.40
2022-11-02T02:42:21.014Z,13.50
2022-11-02T02:46:27.091Z,13.50
2022-11-02T02:50:31.798Z,13.60
2022-11-02T02:54:36.926Z,13.60
2022-11-02T02:58:43.482Z,13.70
2022-11-02T03:03:01.206Z,13.70
2022-11-02T03:07:04.460Z,13.70
2022-11-02T03:11:13.148Z,13.70
2022-11-02T03:15:20.341Z,13.70
2022-11-02T03:19:30.634Z,13.70
2022-11-02T03:23:35.569Z,13.70
2022-11-02T03:27:41.513Z,13.70
2022-11-02T03:31:47.652Z,13.70
2022-11-02T03:35:53.592Z,13.70
2022-11-02T03:39:58.753Z,13.60
2022-11-02T03:44:05.335Z,13.60
2022-11-02T03:48:09.764Z,13.60
2022-11-02T03:52:17.543Z,13.60
2022-11-02T03:56:22.432Z,13.50
2022-11-02T04:00:25.937Z,13.50
2022-11-02T04:04:28.782Z,13.50
2022-11-02T04:08:34.910Z,13.50
2022-11-02T04:12:55.230Z,13.50
2022-11-02T04:17:12.022Z,13.50
2022-11-02T04:21:14.862Z,13.50
2022-11-02T04:25:19.506Z,13.50
2022-11-02T04:29:22.402Z,13.40
2022-11-02T04:33:34.571Z,13.40
2022-11-02T04:37:57.883Z,13.40
2022-11-02T04:42:02.141Z,13.40
2022-11-02T04:46:05.077Z,13.40
2022-11-02T04:50:08.121Z,13.40
2022-11-02T04:54:11.018Z,13.40
2022-11-02T04:58:15.257Z,13.30
2022-11-02T05:02:18.350Z,13.30
2022-11-02T05:06:22.278Z,13.30
2022-11-02T05:10:25.151Z,13.20
2022-11-02T05:14:29.358Z,13.20
2022-11-02T05:18:33.283Z,13.20
2022-11-02T05:22:36.115Z,13.20
2022-11-02T05:26:38.967Z,13.20
2022-11-02T05:30:43.181Z,13.20
2022-11-02T05:34:46.215Z,13.20
2022-11-02T05:38:49.058Z,13.20
2022-11-02T05:42:55.597Z,13.20
2022-11-02T05:47:00.050Z,13.20
2022-11-02T05:51:04.252Z,13.20
2022-11-02T05:55:07.576Z,13.20
2022-11-02T05:59:10.433Z,13.20
2022-11-02T06:03:14.593Z,13.10
2022-11-02T06:07:17.545Z,13.10
2022-11-02T06:11:20.522Z,13.10
2022-11-02T06:15:23.364Z,13.10
2022-11-02T06:19:27.576Z,13.10
2022-11-02T06:23:30.855Z,13.10
2022-11-02T06:27:33.735Z,13.10
2022-11-02T06:31:36.585Z,13.10
2022-11-02T06:35:40.859Z,13.10
2022-11-02T06:39:43.716Z,13.10
2022-11-02T06:43:46.570Z,13.10
2022-11-02T06:47:49.594Z,13.10
2022-11-02T06:51:54.002Z,13.10
2022-11-02T06:55:57.902Z,13.20
2022-11-02T07:00:04.940Z,13.20
2022-11-02T07:04:07.930Z,13.30
2022-11-02T07:08:12.127Z,13.30
2022-11-02T07:12:19.154Z,13.30
2022-11-02T07:16:25.775Z,13.30
2022-11-02T07:20:30.452Z,13.40
2022-11-02T07:24:34.729Z,13.40
2022-11-02T07:28:38.402Z,13.40
2022-11-02T07:32:41.695Z,13.40
2022-11-02T07:36:44.567Z,13.50
2022-11-02T07:40:49.707Z,13.50
2022-11-02T07:44:52.601Z,13.50
2022-11-02T07:48:55.467Z,13.50
2022-11-02T07:52:58.874Z,13.50
2022-11-02T07:57:03.209Z,13.60
2022-11-02T08:01:06.134Z,13.60
2022-11-02T08:05:09.454Z,13.70
2022-11-02T08:09:12.544Z,13.70
2022-11-02T08:13:17.485Z,13.80
2022-11-02T08:17:21.690Z,13.80
2022-11-02T08:21:24.571Z,13.80
2022-11-02T08:25:27.663Z,13.80
2022-11-02T08:29:31.970Z,13.80
2022-11-02T08:33:34.919Z,13.80
2022-11-02T08:37:37.762Z,13.80
2022-11-02T08:41:40.613Z,13.80
2022-11-02T08:50:08.700Z,13.90
2022-11-02T08:54:11.531Z,13.90
2022-11-02T08:58:14.405Z,13.90
2022-11-02T09:02:18.695Z,13.90
2022-11-02T09:06:21.719Z,13.90
2022-11-02T09:10:24.627Z,14.00
2022-11-02T09:14:27.629Z,14.00
2022-11-02T09:18:31.918Z,14.00
2022-11-02T09:22:34.834Z,14.10
2022-11-02T09:26:37.729Z,14.00
2022-11-02T09:30:41.616Z,14.10
2022-11-02T09:34:47.429Z,14.20
2022-11-02T09:38:50.448Z,14.40
2022-11-02T09:43:00.003Z,14.60
2022-11-02T09:47:55.679Z,15.00
2022-11-02T09:51:29.820Z,15.50
2022-11-02T09:55:35.094Z,16.20
2022-11-02T09:59:38.120Z,16.60
2022-11-02T10:03:49.253Z,17.10
2022-11-02T10:08:07.248Z,17.20
2022-11-02T10:12:14.155Z,16.90
2022-11-02T10:16:19.758Z,16.70
2022-11-02T10:20:25.932Z,16.60
2022-11-02T10:24:33.440Z,16.60
2022-11-02T10:28:39.644Z,16.50
2022-11-02T10:32:45.219Z,16.60
2022-11-02T10:36:52.902Z,16.70
2022-11-02T10:41:08.189Z,16.90
2022-11-02T10:45:29.504Z,17.00
2022-11-02T10:49:44.038Z,16.90
2022-11-02T10:53:48.251Z,16.80
2022-11-02T10:57:52.579Z,16.70
2022-11-02T11:02:06.977Z,16.60
2022-11-02T11:06:13.552Z,16.80
2022-11-02T11:10:16.589Z,17.20
2022-11-02T11:23:21.751Z,17.20
2022-11-02T11:27:24.617Z,16.90
2022-11-02T11:31:27.618Z,16.70
2022-11-02T11:35:32.648Z,16.50
2022-11-02T11:39:37.471Z,16.50
2022-11-02T11:43:41.055Z,16.60
2022-11-02T11:47:44.046Z,17.10
2022-11-02T11:51:50.206Z,17.30
2022-11-02T11:55:55.265Z,17.40
2022-11-02T12:00:01.575Z,17.40
2022-11-02T12:04:04.578Z,17.70
2022-11-02T13:13:04.054Z,16.40
2022-11-02T13:17:11.663Z,16.30
2022-11-02T13:21:16.779Z,16.10
2022-11-02T13:25:21.110Z,16.00
2022-11-02T13:29:30.175Z,15.90
2022-11-02T13:33:38.493Z,15.80
2022-11-02T13:37:42.367Z,15.70
2022-11-02T13:42:00.191Z,15.70
2022-11-02T13:46:13.233Z,15.70
2022-11-02T13:50:18.017Z,15.70
2022-11-02T13:54:22.577Z,15.70
2022-11-02T13:58:26.274Z,15.60
2022-11-02T14:02:33.054Z,15.60
2022-11-02T14:06:45.541Z,15.60
2022-11-02T14:11:03.695Z,15.50
2022-11-02T14:15:25.146Z,15.40
2022-11-02T14:19:33.292Z,15.40
2022-11-02T14:23:39.997Z,15.30
2022-11-02T14:27:42.991Z,15.30
2022-11-02T14:31:53.207Z,15.20
2022-11-02T14:35:59.441Z,15.10
2022-11-02T14:40:05.943Z,15.10
2022-11-02T14:44:15.862Z,15.00
2022-11-02T14:48:18.740Z,15.00
2022-11-02T14:52:27.332Z,14.90
2022-11-02T14:56:45.096Z,14.90
2022-11-02T15:00:56.778Z,14.80
2022-11-02T15:05:00.608Z,14.80
2022-11-02T15:09:05.162Z,14.80
2022-11-02T15:13:38.257Z,14.70
2022-11-02T15:17:51.913Z,14.70
2022-11-02T15:22:14.832Z,14.80
2022-11-02T15:26:20.536Z,14.80
2022-11-02T15:30:28.345Z,14.90
2022-11-02T15:34:34.864Z,14.90
2022-11-02T15:38:40.257Z,14.80
2022-11-02T15:42:46.342Z,14.80
2022-11-02T15:46:55.998Z,14.70
2022-11-02T15:51:03.665Z,14.60
2022-11-02T15:55:11.882Z,14.40
2022-11-02T15:59:32.685Z,14.30
2022-11-02T16:03:35.754Z,14.20
2022-11-02T16:08:05.043Z,14.10
2022-11-02T16:12:02.544Z,13.90
2022-11-02T16:16:07.845Z,13.80
2022-11-02T16:20:11.806Z,13.70
2022-11-02T16:24:14.725Z,13.60
2022-11-02T16:28:19.690Z,13.50
2022-11-02T16:32:25.238Z,13.40
2022-11-02T16:36:29.481Z,13.30
2022-11-02T16:40:32.467Z,13.20
2022-11-02T16:44:35.720Z,13.10
2022-11-02T16:48:39.987Z,13.00
2022-11-02T16:52:42.924Z,12.90
2022-11-02T16:56:48.554Z,12.70
2022-11-02T17:00:58.785Z,12.60
2022-11-02T17:05:06.404Z,12.50
2022-11-02T17:09:21.328Z,12.40
2022-11-02T17:13:25.455Z,12.30
2022-11-02T17:17:33.037Z,12.20
2022-11-02T17:21:37.540Z,12.10
2022-11-02T17:25:41.300Z,12.00
2022-11-02T17:29:50.499Z,11.90
2022-11-02T17:33:53.381Z,11.80
2022-11-02T17:37:58.540Z,11.70
2022-11-02T17:42:18.758Z,11.60
2022-11-02T17:46:21.634Z,11.60
2022-11-02T17:50:25.312Z,11.50
2022-11-02T17:54:29.638Z,11.40
2022-11-02T17:58:32.558Z,11.30
2022-11-02T18:02:35.475Z,11.30
2022-11-02T18:10:43.755Z,11.20
2022-11-02T18:14:46.871Z,11.10
2022-11-02T18:18:49.936Z,11.10
2022-11-02T18:22:52.892Z,11.00
2022-11-02T18:26:57.136Z,11.00
2022-11-02T18:31:00.029Z,11.00
2022-11-02T18:35:02.917Z,11.00
2022-11-02T18:39:05.758Z,10.90
2022-11-02T18:43:10.302Z,10.90
2022-11-02T18:47:13.710Z,10.80
2022-11-02T18:51:16.647Z,10.70
2022-11-02T18:55:19.604Z,10.70
2022-11-02T18:59:23.827Z,10.60
2022-11-02T19:03:26.657Z,10.60
2022-11-02T19:07:47.015Z,10.50
2022-11-02T19:11:51.257Z,10.50
2022-11-02T19:15:55.574Z,10.40
2022-11-02T19:19:58.682Z,10.40
2022-11-02T19:24:01.717Z,10.40
2022-11-02T19:28:05.518Z,10.30
2022-11-02T19:32:10.289Z,10.30
2022-11-02T19:36:13.163Z,10.30
2022-11-02T19:40:23.966Z,10.30
2022-11-02T19:44:27.123Z,10.30
2022-11-02T19:48:32.765Z,10.30
2022-11-02T19:52:35.640Z,10.30
2022-11-02T19:56:38.589Z,10.30
2022-11-02T20:00:41.574Z,10.30
2022-11-02T20:04:46.089Z,10.30
2022-11-02T20:08:52.062Z,10.30
2022-11-02T20:12:54.948Z,10.30
2022-11-02T20:17:10.711Z,10.30
2022-11-02T20:21:25.739Z,10.30
2022-11-02T20:25:33.241Z,10.30
2022-11-02T20:29:36.256Z,10.30
2022-11-02T20:33:39.750Z,10.30
2022-11-02T20:37:43.985Z,10.40
2022-11-02T20:41:55.917Z,10.40
2022-11-02T20:50:26.093Z,10.40
2022-11-02T20:54:30.452Z,10.40
2022-11-02T20:58:33.315Z,10.40
2022-11-02T21:02:36.454Z,10.50
2022-11-02T21:06:39.379Z,10.50
2022-11-02T21:10:43.741Z,10.50
2022-11-02T21:14:46.614Z,10.50
2022-11-02T21:18:49.795Z,10.50
2022-11-02T21:22:52.813Z,10.60
2022-11-02T21:26:57.294Z,10.60
2022-11-02T21:31:03.359Z,10.60
2022-11-02T21:35:06.669Z,10.50
2022-11-02T21:39:09.517Z,10.60
2022-11-02T21:43:13.864Z,10.60
2022-11-02T21:47:16.744Z,10.60
2022-11-02T21:51:20.922Z,10.60
2022-11-02T21:55:23.749Z,10.60
2022-11-02T21:59:29.115Z,10.60
2022-11-02T22:03:32.022Z,10.60
2022-11-02T22:07:54.874Z,10.70
2022-11-02T22:12:16.028Z,10.60
2022-11-02T22:16:20.955Z,10.70
2022-11-02T22:20:23.867Z,10.70
2022-11-02T22:24:26.921Z,10.70
2022-11-02T22:28:31.174Z,10.70
2022-11-02T22:32:36.515Z,10.70
2022-11-02T22:36:40.012Z,10.70
2022-11-02T22:40:42.881Z,10.80
2022-11-02T22:44:47.857Z,10.80
2022-11-02T22:48:53.969Z,10.80
2022-11-02T22:52:56.825Z,10.80
2022-11-02T22:56:59.671Z,10.80
2022-11-02T23:01:17.054Z,10.80
2022-11-02T23:05:22.950Z,10.70
2022-11-02T23:09:25.902Z,10.70
2022-11-02T23:13:29.011Z,10.70
2022-11-02T23:17:31.811Z,10.70
2022-11-02T23:21:36.166Z,10.70
2022-11-02T23:25:39.148Z,10.70
2022-11-02T23:29:59.932Z,10.70
2022-11-02T23:34:11.114Z,10.60
2022-11-02T23:38:15.376Z,10.60
2022-11-02T23:42:18.247Z,10.60
2022-11-02T23:46:21.102Z,10.60
2022-11-02T23:50:41.873Z,10.60
2022-11-02T23:55:03.683Z,10.60
2022-11-02T23:59:09.136Z,10.60
